createdAt,value
2018-11-27T00:00:25.930Z,19.07
2018-11-27T00:03:10.532Z,19.83
2018-11-27T00:05:39.290Z,17.33
2018-11-27T00:08:08.168Z,16.33
2018-11-27T00:10:39.126Z,17.13
2018-11-27T00:13:08.240Z,17.37
2018-11-27T00:15:36.682Z,17.53
2018-11-27T00:18:05.205Z,17.63
2018-11-27T00:20:33.747Z,17.13
2018-11-27T00:23:02.472Z,19.40
2018-11-27T00:25:35.044Z,17.70
2018-11-27T00:28:06.322Z,16.70
2018-11-27T00:30:34.778Z,16.90
2018-11-27T00:33:04.153Z,18.03
2018-11-27T00:35:32.606Z,16.30
2018-11-27T00:38:01.033Z,16.60
2018-11-27T00:40:29.593Z,16.43
2018-11-27T00:42:58.026Z,16.60
2018-11-27T00:45:26.525Z,16.40
2018-11-27T00:47:54.966Z,18.57
2018-11-27T00:50:24.581Z,17.50
2018-11-27T00:52:53.027Z,17.10
2018-11-27T00:55:22.043Z,15.93
2018-11-27T00:57:51.771Z,17.83
2018-11-27T01:00:22.175Z,17.43
2018-11-27T01:02:50.691Z,17.10
2018-11-27T01:05:21.953Z,17.07
2018-11-27T01:07:50.449Z,16.97
2018-11-27T01:10:22.519Z,16.40
2018-11-27T01:12:51.586Z,17.97
2018-11-27T01:15:20.139Z,16.33
2018-11-27T01:17:53.818Z,16.40
2018-11-27T01:20:22.756Z,16.77
2018-11-27T01:22:51.290Z,17.53
2018-11-27T01:25:19.761Z,19.17
2018-11-27T01:27:48.365Z,17.43
2018-11-27T01:30:18.028Z,17.63
2018-11-27T01:32:46.653Z,17.40
2018-11-27T01:35:16.103Z,17.70
2018-11-27T01:37:44.840Z,16.17
2018-11-27T01:40:18.241Z,15.93
2018-11-27T01:42:48.549Z,17.13
2018-11-27T01:45:18.561Z,15.53
2018-11-27T01:47:47.351Z,15.50
2018-11-27T01:50:16.752Z,16.73
2018-11-27T01:52:45.769Z,18.73
2018-11-27T01:55:16.249Z,16.97
2018-11-27T01:57:45.418Z,16.43
2018-11-27T02:00:18.274Z,17.93
2018-11-27T02:02:47.490Z,16.97
2018-11-27T02:05:15.918Z,17.43
2018-11-27T02:07:44.433Z,17.10
2018-11-27T02:10:13.981Z,17.50
2018-11-27T02:12:44.678Z,17.20
2018-11-27T02:15:28.905Z,16.97
2018-11-27T02:17:57.627Z,17.40
2018-11-27T02:20:26.091Z,19.00
2018-11-27T02:22:55.019Z,18.07
2018-11-27T02:25:25.528Z,18.97
2018-11-27T02:27:54.091Z,18.37
2018-11-27T02:30:23.530Z,18.03
2018-11-27T02:32:52.805Z,18.40
2018-11-27T02:35:22.372Z,19.10
2018-11-27T02:37:52.469Z,18.83
2018-11-27T02:40:21.036Z,18.57
2018-11-27T02:42:49.597Z,18.17
2018-11-27T02:45:19.023Z,16.83
2018-11-27T02:47:48.158Z,17.33
2018-11-27T02:50:17.944Z,15.53
2018-11-27T02:52:46.510Z,15.83
2018-11-27T02:55:22.953Z,16.17
2018-11-27T02:57:51.536Z,16.10
2018-11-27T03:00:21.093Z,15.10
2018-11-27T03:02:50.097Z,16.53
2018-11-27T03:05:24.396Z,18.07
2018-11-27T03:07:52.994Z,17.07
2018-11-27T03:10:21.979Z,17.23
2018-11-27T03:12:51.468Z,16.90
2018-11-27T03:15:20.019Z,17.53
2018-11-27T03:17:48.502Z,17.83
2018-11-27T03:20:17.789Z,17.27
2018-11-27T03:22:46.281Z,16.23
2018-11-27T03:25:16.838Z,17.00
2018-11-27T03:27:45.953Z,17.37
2018-11-27T03:30:17.480Z,17.87
2018-11-27T03:32:46.068Z,17.93
2018-11-27T03:35:18.330Z,17.00
2018-11-27T03:37:47.698Z,16.93
2018-11-27T03:40:18.149Z,16.37
2018-11-27T03:42:47.434Z,15.30
2018-11-27T03:45:16.366Z,15.23
2018-11-27T03:47:44.898Z,16.53
2018-11-27T03:50:20.456Z,15.10
2018-11-27T03:52:49.414Z,15.97
2018-11-27T03:55:17.980Z,15.07
2018-11-27T03:57:46.521Z,16.67
2018-11-27T04:00:16.253Z,15.57
2018-11-27T04:02:45.710Z,15.20
2018-11-27T04:05:15.685Z,15.67
2018-11-27T04:07:44.264Z,15.17
2018-11-27T04:10:16.811Z,15.23
2018-11-27T04:12:45.241Z,15.03
2018-11-27T04:15:14.109Z,15.67
2018-11-27T04:17:42.628Z,15.33
2018-11-27T04:20:11.964Z,15.60
2018-11-27T04:22:40.992Z,15.57
2018-11-27T04:25:13.403Z,15.23
2018-11-27T04:27:41.891Z,15.77
2018-11-27T04:30:11.986Z,16.83
2018-11-27T04:32:40.829Z,16.20
2018-11-27T04:35:13.062Z,16.07
2018-11-27T04:37:41.596Z,16.93
2018-11-27T04:40:11.334Z,16.10
2018-11-27T04:42:39.850Z,16.10
2018-11-27T04:45:11.661Z,15.93
2018-11-27T04:48:00.812Z,15.43
2018-11-27T04:50:29.305Z,16.60
2018-11-27T04:52:57.854Z,15.03
2018-11-27T04:55:26.981Z,17.33
2018-11-27T04:57:55.550Z,16.60
2018-11-27T05:00:25.048Z,15.33
2018-11-27T05:02:53.577Z,17.40
2018-11-27T05:05:22.218Z,16.53
2018-11-27T05:07:51.262Z,15.77
2018-11-27T05:10:24.217Z,15.50
2018-11-27T05:12:52.774Z,16.87
2018-11-27T05:15:22.411Z,16.90
2018-11-27T05:17:52.917Z,15.10
2018-11-27T05:20:21.385Z,14.60
2018-11-27T05:22:49.839Z,14.13
2018-11-27T05:25:19.653Z,15.23
2018-11-27T05:27:49.238Z,14.67
2018-11-27T05:30:18.598Z,14.40
2018-11-27T05:32:47.070Z,15.63
2018-11-27T05:35:16.904Z,14.27
2018-11-27T05:37:46.796Z,15.87
2018-11-27T05:40:23.051Z,15.27
2018-11-27T05:42:53.878Z,16.13
2018-11-27T05:45:23.805Z,15.27
2018-11-27T05:47:52.323Z,15.87
2018-11-27T05:50:21.326Z,16.20
2018-11-27T05:52:49.896Z,15.50
2018-11-27T05:55:18.706Z,17.00
2018-11-27T05:57:51.456Z,16.17
2018-11-27T06:00:23.384Z,16.63
2018-11-27T06:02:52.913Z,17.60
2018-11-27T06:05:22.658Z,16.27
2018-11-27T06:07:51.186Z,15.83
2018-11-27T06:10:20.903Z,17.47
2018-11-27T06:12:49.799Z,15.93
2018-11-27T06:15:21.253Z,16.13
2018-11-27T06:17:52.849Z,15.67
2018-11-27T06:20:22.329Z,16.23
2018-11-27T06:22:51.085Z,16.17
2018-11-27T06:25:23.457Z,17.13
2018-11-27T06:27:53.963Z,18.47
2018-11-27T06:30:23.742Z,17.80
2018-11-27T06:32:52.209Z,16.97
2018-11-27T06:35:23.829Z,16.13
2018-11-27T06:37:52.380Z,16.33
2018-11-27T06:40:22.031Z,16.00
2018-11-27T06:42:50.504Z,15.27
2018-11-27T06:45:19.940Z,15.83
2018-11-27T06:47:49.346Z,16.40
2018-11-27T06:50:19.069Z,15.80
2018-11-27T06:52:47.506Z,16.37
2018-11-27T06:55:18.053Z,14.83
2018-11-27T06:57:46.567Z,14.23
2018-11-27T07:00:24.960Z,15.77
2018-11-27T07:02:53.695Z,16.97
2018-11-27T07:05:22.937Z,15.93
2018-11-27T07:07:51.606Z,16.43
2018-11-27T07:10:29.158Z,17.10
2018-11-27T07:13:03.351Z,17.10
2018-11-27T07:15:32.953Z,15.10
2018-11-27T07:18:01.450Z,17.20
2018-11-27T07:20:29.960Z,16.50
2018-11-27T07:22:58.438Z,16.10
2018-11-27T07:25:26.933Z,16.53
2018-11-27T07:27:55.354Z,16.00
2018-11-27T07:30:24.767Z,17.00
2018-11-27T07:32:53.897Z,16.17
2018-11-27T07:35:22.595Z,15.50
2018-11-27T07:37:51.958Z,15.30
2018-11-27T07:40:25.336Z,16.23
2018-11-27T07:42:58.387Z,15.50
2018-11-27T07:45:27.945Z,15.63
2018-11-27T07:47:56.443Z,14.57
2018-11-27T07:50:24.958Z,15.40
2018-11-27T07:52:54.505Z,16.50
2018-11-27T07:55:24.054Z,15.33
2018-11-27T07:57:53.397Z,14.40
2018-11-27T08:00:23.355Z,15.53
2018-11-27T08:02:54.848Z,14.80
2018-11-27T08:05:28.413Z,15.47
2018-11-27T08:07:58.067Z,15.17
2018-11-27T08:10:28.893Z,14.73
2018-11-27T08:12:58.152Z,16.27
2018-11-27T08:15:30.816Z,16.03
2018-11-27T08:17:59.753Z,18.07
2018-11-27T08:20:29.403Z,14.93
2018-11-27T08:22:57.846Z,14.73
2018-11-27T08:25:27.064Z,16.50
2018-11-27T08:27:55.549Z,14.40
2018-11-27T08:30:24.452Z,15.47
2018-11-27T08:32:54.712Z,15.80
2018-11-27T08:35:25.196Z,16.30
2018-11-27T08:37:55.093Z,15.33
2018-11-27T08:40:25.051Z,16.30
2018-11-27T08:42:55.012Z,15.93
2018-11-27T08:45:26.187Z,15.13
2018-11-27T08:47:56.185Z,14.40
2018-11-27T08:50:26.037Z,14.80
2018-11-27T08:52:58.961Z,16.10
2018-11-27T08:55:30.589Z,14.17
2018-11-27T08:58:00.352Z,14.50
2018-11-27T09:00:29.548Z,15.50
2018-11-27T09:02:58.487Z,14.93
2018-11-27T09:08:01.285Z,16.37
2018-11-27T09:10:29.837Z,14.30
2018-11-27T09:12:58.640Z,14.03
2018-11-27T09:15:27.711Z,13.67
2018-11-27T09:18:01.760Z,13.40
2018-11-27T09:20:30.238Z,12.67
2018-11-27T09:22:58.803Z,13.03
2018-11-27T09:25:27.653Z,12.20
2018-11-27T09:27:56.175Z,13.17
2018-11-27T09:30:26.162Z,11.57
2018-11-27T09:32:56.382Z,10.70
2018-11-27T09:35:24.890Z,11.93
2018-11-27T09:37:53.446Z,12.27
2018-11-27T09:40:22.179Z,12.10
2018-11-27T09:42:50.683Z,11.43
2018-11-27T09:45:22.085Z,11.87
2018-11-27T09:47:52.200Z,12.57
2018-11-27T09:50:20.817Z,13.87
2018-11-27T09:52:49.549Z,11.33
2018-11-27T09:55:20.051Z,12.03
2018-11-27T09:57:48.557Z,11.83
2018-11-27T10:00:18.997Z,11.80
2018-11-27T10:02:47.577Z,11.40
2018-11-27T10:05:16.933Z,11.90
2018-11-27T10:07:45.465Z,11.43
2018-11-27T10:10:15.497Z,11.97
2018-11-27T10:12:44.465Z,11.07
2018-11-27T10:15:16.116Z,10.87
2018-11-27T10:17:46.328Z,10.97
2018-11-27T10:20:18.305Z,11.13
2018-11-27T10:22:46.819Z,10.87
2018-11-27T10:25:15.472Z,10.57
2018-11-27T10:27:44.342Z,10.33
2018-11-27T10:30:21.090Z,10.80
2018-11-27T10:32:50.585Z,12.33
2018-11-27T10:35:28.728Z,11.33
2018-11-27T10:37:57.226Z,11.70
2018-11-27T10:40:25.673Z,11.00
2018-11-27T10:42:54.256Z,12.00
2018-11-27T10:45:24.013Z,11.07
2018-11-27T10:47:54.574Z,11.33
2018-11-27T10:50:23.331Z,10.23
2018-11-27T10:52:53.869Z,8.97
2018-11-27T10:55:23.007Z,8.67
2018-11-27T10:57:51.643Z,8.87
2018-11-27T11:00:26.243Z,8.90
2018-11-27T11:03:00.302Z,9.27
2018-11-27T11:05:31.785Z,10.43
2018-11-27T11:08:00.421Z,9.90
2018-11-27T11:10:28.990Z,9.40
2018-11-27T11:12:57.467Z,9.93
2018-11-27T11:15:26.893Z,9.77
2018-11-27T11:17:55.327Z,9.40
2018-11-27T11:20:24.337Z,9.83
2018-11-27T11:22:52.978Z,9.20
2018-11-27T11:25:22.754Z,8.87
2018-11-27T11:27:55.534Z,9.50
2018-11-27T11:30:24.141Z,9.70
2018-11-27T11:32:52.766Z,10.07
2018-11-27T11:35:21.426Z,9.93
2018-11-27T11:37:50.390Z,10.63
2018-11-27T11:40:23.494Z,10.57
2018-11-27T11:42:53.126Z,10.93
2018-11-27T11:45:22.333Z,11.03
2018-11-27T11:47:50.749Z,10.07
2018-11-27T11:50:27.047Z,11.23
2018-11-27T11:52:57.779Z,9.57
2018-11-27T11:55:27.165Z,10.70
2018-11-27T11:57:55.745Z,10.20
2018-11-27T12:00:27.366Z,10.50
2018-11-27T12:02:55.853Z,10.53
2018-11-27T12:05:25.160Z,15.83
2018-11-27T12:07:54.744Z,10.33
2018-11-27T12:10:23.235Z,10.13
2018-11-27T12:12:52.246Z,9.63
2018-11-27T12:15:20.845Z,10.03
2018-11-27T12:17:49.759Z,9.40
2018-11-27T12:20:19.481Z,10.13
2018-11-27T12:22:49.333Z,9.53
2018-11-27T12:25:17.845Z,9.00
2018-11-27T12:27:50.273Z,9.93
2018-11-27T12:30:23.426Z,10.00
2018-11-27T12:32:52.086Z,9.90
2018-11-27T12:35:21.512Z,9.47
2018-11-27T12:37:50.051Z,9.00
2018-11-27T12:40:20.077Z,10.80
2018-11-27T12:42:48.959Z,9.63
2018-11-27T12:45:20.820Z,9.20
2018-11-27T12:47:49.320Z,9.13
2018-11-27T12:50:19.129Z,9.43
2018-11-27T12:52:47.795Z,8.77
2018-11-27T12:55:18.270Z,9.07
2018-11-27T12:57:46.838Z,10.00
2018-11-27T13:00:16.553Z,8.97
2018-11-27T13:02:45.058Z,9.80
2018-11-27T13:05:15.019Z,8.83
2018-11-27T13:07:44.141Z,10.33
2018-11-27T13:10:17.060Z,10.13
2018-11-27T13:12:46.520Z,9.70
2018-11-27T13:15:16.773Z,9.60
2018-11-27T13:17:45.749Z,9.27
2018-11-27T13:20:15.187Z,10.03
2018-11-27T13:22:43.649Z,10.57
2018-11-27T13:25:15.249Z,10.10
2018-11-27T13:27:43.782Z,9.93
2018-11-27T13:31:20.133Z,11.73
2018-11-27T13:33:56.805Z,10.73
2018-11-27T13:36:25.290Z,10.50
2018-11-27T13:38:54.378Z,14.10
2018-11-27T13:41:22.948Z,12.57
2018-11-27T13:43:51.585Z,11.10
2018-11-27T13:46:20.840Z,10.47
2018-11-27T13:48:49.254Z,11.03
2018-11-27T13:51:17.742Z,10.90
2018-11-27T13:53:46.890Z,11.07
2018-11-27T13:56:15.388Z,11.13
2018-11-27T13:58:43.853Z,11.10
2018-11-27T14:01:12.509Z,10.33
2018-11-27T14:03:40.945Z,10.40
2018-11-27T14:06:09.444Z,11.23
2018-11-27T14:08:38.391Z,10.63
2018-11-27T14:11:07.022Z,11.70
2018-11-27T14:13:35.771Z,11.27
2018-11-27T14:16:04.442Z,11.30
2018-11-27T14:18:33.313Z,10.67
2018-11-27T14:21:01.769Z,10.60
2018-11-27T14:23:30.379Z,10.83
2018-11-27T14:25:58.882Z,11.63
2018-11-27T14:28:27.375Z,10.87
2018-11-27T14:30:56.410Z,11.03
2018-11-27T14:33:24.917Z,11.20
2018-11-27T14:35:54.085Z,11.57
2018-11-27T14:38:22.566Z,11.97
2018-11-27T14:40:51.113Z,11.87
2018-11-27T14:43:19.587Z,11.00
2018-11-27T14:45:49.292Z,12.57
2018-11-27T14:48:19.104Z,10.90
2018-11-27T14:50:46.285Z,10.73
2018-11-27T14:53:15.542Z,12.53
2018-11-27T14:55:44.036Z,12.33
2018-11-27T14:58:14.998Z,11.77
2018-11-27T15:00:41.017Z,12.57
2018-11-27T15:03:09.530Z,11.87
2018-11-27T15:05:39.143Z,11.53
2018-11-27T15:08:12.213Z,11.90
2018-11-27T15:10:40.738Z,12.63
2018-11-27T15:13:10.268Z,11.50
2018-11-27T15:15:39.746Z,14.57
2018-11-27T15:18:08.677Z,13.43
2018-11-27T15:20:37.226Z,13.77
2018-11-27T15:23:05.717Z,13.60
2018-11-27T15:25:35.417Z,13.30
2018-11-27T15:28:04.129Z,13.37
2018-11-27T15:30:35.435Z,13.40
2018-11-27T15:33:03.933Z,14.53
2018-11-27T15:35:32.727Z,13.97
2018-11-27T15:38:01.189Z,13.80
2018-11-27T15:40:30.444Z,14.77
2018-11-27T15:43:01.551Z,15.43
2018-11-27T15:45:31.318Z,14.33
2018-11-27T15:47:59.858Z,14.37
2018-11-27T15:50:28.320Z,14.20
2018-11-27T15:52:56.825Z,15.37
2018-11-27T15:55:34.384Z,15.17
2018-11-27T15:58:11.827Z,16.33
2018-11-27T16:00:41.188Z,14.23
2018-11-27T16:03:09.953Z,15.90
2018-11-27T16:05:39.480Z,14.80
2018-11-27T16:08:08.748Z,13.97
2018-11-27T16:10:37.256Z,15.10
2018-11-27T16:13:06.246Z,15.93
2018-11-27T16:15:34.982Z,15.60
2018-11-27T16:18:03.593Z,16.63
2018-11-27T16:20:32.726Z,14.17
2018-11-27T16:23:01.304Z,15.57
2018-11-27T16:25:29.822Z,15.40
2018-11-27T16:27:59.170Z,14.07
2018-11-27T16:30:29.866Z,15.10
2018-11-27T16:32:59.902Z,14.93
2018-11-27T16:35:28.478Z,15.07
2018-11-27T16:38:00.088Z,14.63
2018-11-27T16:40:29.808Z,14.23
2018-11-27T16:42:58.285Z,12.87
2018-11-27T16:45:26.743Z,13.53
2018-11-27T16:47:55.241Z,14.07
2018-11-27T16:50:23.697Z,13.57
2018-11-27T16:52:52.293Z,14.27
2018-11-27T16:55:21.857Z,13.13
2018-11-27T16:57:50.405Z,13.43
2018-11-27T17:00:20.849Z,12.83
2018-11-27T17:02:50.513Z,15.17
2018-11-27T17:05:18.799Z,16.80
2018-11-27T17:07:47.342Z,14.70
2018-11-27T17:10:16.721Z,14.67
2018-11-27T17:12:46.085Z,15.07
2018-11-27T17:15:18.062Z,14.97
2018-11-27T17:17:46.866Z,15.87
2018-11-27T17:20:21.027Z,13.43
2018-11-27T17:22:50.636Z,13.03
2018-11-27T17:25:19.179Z,12.83
2018-11-27T17:27:47.934Z,13.97
2018-11-27T17:30:24.985Z,13.30
2018-11-27T17:32:54.672Z,13.57
2018-11-27T17:35:24.424Z,15.30
2018-11-27T17:37:53.415Z,14.37
2018-11-27T17:40:22.571Z,13.67
2018-11-27T17:42:51.571Z,13.90
2018-11-27T17:45:20.141Z,13.03
2018-11-27T17:47:48.634Z,13.53
2018-11-27T17:50:19.098Z,22.33
2018-11-27T17:52:47.635Z,25.70
2018-11-27T17:55:16.189Z,23.83
2018-11-27T17:57:44.634Z,19.70
2018-11-27T18:00:17.702Z,14.23
2018-11-27T18:02:50.894Z,13.97
2018-11-27T18:05:19.680Z,15.37
2018-11-27T18:07:48.294Z,15.10
2018-11-27T18:10:16.777Z,14.17
2018-11-27T18:12:45.292Z,13.17
2018-11-27T18:15:17.208Z,13.47
2018-11-27T18:17:45.761Z,13.40
2018-11-27T18:20:14.495Z,23.87
2018-11-27T18:22:43.078Z,21.80
2018-11-27T18:25:12.853Z,26.33
2018-11-27T18:27:41.924Z,14.83
2018-11-27T18:30:14.620Z,40.83
2018-11-27T18:32:43.225Z,14.47
2018-11-27T18:35:12.896Z,15.70
2018-11-27T18:37:41.471Z,15.93
2018-11-27T18:40:11.930Z,14.50
2018-11-27T18:42:40.457Z,15.20
2018-11-27T18:45:13.959Z,13.53
2018-11-27T18:47:42.465Z,12.93
2018-11-27T18:50:11.733Z,12.87
2018-11-27T18:52:41.242Z,13.03
2018-11-27T18:55:11.917Z,12.10
2018-11-27T18:57:40.970Z,13.40
2018-11-27T19:00:26.486Z,13.50
2018-11-27T19:02:56.205Z,12.23
2018-11-27T19:05:26.202Z,12.03
2018-11-27T19:07:54.669Z,12.37
2018-11-27T19:10:25.521Z,12.03
2018-11-27T19:12:54.262Z,12.77
2018-11-27T19:15:28.183Z,15.57
2018-11-27T19:18:01.619Z,17.17
2018-11-27T19:20:30.286Z,15.97
2018-11-27T19:23:00.083Z,14.17
2018-11-27T19:25:28.701Z,14.27
2018-11-27T19:27:58.235Z,22.77
2018-11-27T19:30:31.993Z,21.40
2018-11-27T19:32:55.868Z,25.93
2018-11-27T19:35:25.645Z,28.30
2018-11-27T19:37:54.109Z,16.43
2018-11-27T19:40:22.864Z,15.50
2018-11-27T19:42:51.601Z,12.10
2018-11-27T19:45:22.828Z,15.33
2018-11-27T19:47:52.060Z,13.20
2018-11-27T19:50:20.783Z,12.07
2018-11-27T19:52:52.471Z,14.83
2018-11-27T19:55:21.414Z,13.33
2018-11-27T19:57:50.141Z,12.30
2018-11-27T20:00:22.971Z,11.40
2018-11-27T20:02:52.341Z,11.07
2018-11-27T20:05:27.164Z,11.77
2018-11-27T20:07:56.359Z,11.87
2018-11-27T20:10:25.051Z,12.70
2018-11-27T20:12:54.049Z,12.03
2018-11-27T20:15:25.147Z,13.17
2018-11-27T20:17:54.591Z,12.23
2018-11-27T20:20:26.051Z,12.17
2018-11-27T20:22:56.490Z,13.00
2018-11-27T20:25:25.426Z,11.97
2018-11-27T20:27:54.648Z,11.93
2018-11-27T20:30:25.238Z,12.47
2018-11-27T20:32:59.095Z,13.73
2018-11-27T20:35:28.185Z,12.77
2018-11-27T20:37:57.293Z,14.77
2018-11-27T20:40:26.227Z,16.47
2018-11-27T20:42:55.470Z,21.57
2018-11-27T20:45:25.419Z,17.23
2018-11-27T20:48:01.265Z,13.87
2018-11-27T20:50:29.715Z,13.47
2018-11-27T20:52:58.486Z,12.43
2018-11-27T20:55:27.199Z,11.73
2018-11-27T20:57:59.250Z,14.93
2018-11-27T21:00:34.174Z,16.13
2018-11-27T21:03:03.710Z,12.73
2018-11-27T21:05:32.243Z,13.43
2018-11-27T21:08:00.714Z,13.03
2018-11-27T21:10:29.216Z,17.87
2018-11-27T21:12:58.619Z,16.37
2018-11-27T21:15:27.158Z,14.20
2018-11-27T21:17:55.658Z,14.20
2018-11-27T21:20:24.184Z,14.03
2018-11-27T21:22:53.506Z,14.33
2018-11-27T21:25:23.126Z,13.40
2018-11-27T21:27:54.009Z,15.10
2018-11-27T21:30:22.495Z,14.63
2018-11-27T21:32:51.170Z,14.17
2018-11-27T21:35:19.734Z,14.37
2018-11-27T21:37:48.261Z,15.13
2018-11-27T21:40:17.731Z,14.97
2018-11-27T21:42:46.371Z,14.20
2018-11-27T21:45:23.322Z,15.13
2018-11-27T21:47:52.523Z,14.57
2018-11-27T21:50:52.523Z,15.30
2018-11-27T21:53:21.083Z,15.43
2018-11-27T21:55:49.572Z,15.33
2018-11-27T21:58:18.531Z,15.77
2018-11-27T22:00:47.101Z,15.93
2018-11-27T22:03:15.916Z,15.33
2018-11-27T22:05:44.548Z,15.63
2018-11-27T22:08:13.180Z,15.57
2018-11-27T22:10:42.543Z,15.73
2018-11-27T22:13:12.869Z,16.03
2018-11-27T22:15:42.506Z,15.13
2018-11-27T22:18:11.994Z,15.70
2018-11-27T22:20:40.605Z,15.73
2018-11-27T22:23:09.747Z,15.43
2018-11-27T22:25:38.318Z,15.37
2018-11-27T22:28:08.007Z,14.90
2018-11-27T22:30:38.317Z,14.83
2018-11-27T22:33:08.065Z,14.83
2018-11-27T22:35:36.665Z,15.60
2018-11-27T22:38:06.173Z,15.60
2018-11-27T22:40:34.756Z,15.07
2018-11-27T22:43:03.312Z,14.90
2018-11-27T22:45:34.166Z,15.33
2018-11-27T22:48:02.866Z,14.67
2018-11-27T22:50:31.533Z,15.47
2018-11-27T22:52:59.994Z,14.80
2018-11-27T22:55:28.482Z,14.27
2018-11-27T22:57:56.976Z,15.93
2018-11-27T23:00:32.878Z,14.70
2018-11-27T23:03:01.700Z,15.67
2018-11-27T23:05:30.228Z,14.57
2018-11-27T23:07:58.847Z,14.70
2018-11-27T23:10:29.313Z,14.40
2018-11-27T23:12:57.828Z,15.20
2018-11-27T23:15:26.273Z,14.77
2018-11-27T23:17:54.756Z,15.17
2018-11-27T23:20:23.413Z,14.83
2018-11-27T23:22:51.885Z,12.90
2018-11-27T23:25:20.539Z,14.67
2018-11-27T23:27:49.038Z,15.83
2018-11-27T23:30:21.918Z,14.43
2018-11-27T23:32:50.614Z,15.17
2018-11-27T23:35:19.158Z,14.40
2018-11-27T23:37:47.646Z,14.43
2018-11-27T23:40:17.478Z,14.73
2018-11-27T23:42:46.385Z,14.47
2018-11-27T23:45:21.339Z,14.13
2018-11-27T23:47:49.814Z,15.27
2018-11-27T23:50:20.003Z,15.77
2018-11-27T23:52:48.840Z,14.87
2018-11-27T23:55:18.278Z,14.70
2018-11-27T23:57:47.023Z,15.63
